sensor_id;sensor_type;location;lat;lon;timestamp;P1;durP1;ratioP1;P2;durP2;ratioP2
9970;SDS011;5026;51.494;11.974;2024-01-30T00:00:06;8.57;;;5.23;;
9970;SDS011;5026;51.494;11.974;2024-01-30T00:02:34;9.00;;;5.67;;
9970;SDS011;5026;51.494;11.974;2024-01-30T00:05:01;12.03;;;5.87;;
9970;SDS011;5026;51.494;11.974;2024-01-30T00:07:29;8.70;;;5.30;;
9970;SDS011;5026;51.494;11.974;2024-01-30T00:09:58;8.17;;;5.83;;
9970;SDS011;5026;51.494;11.974;2024-01-30T00:12:25;7.07;;;4.67;;
9970;SDS011;5026;51.494;11.974;2024-01-30T00:14:52;8.77;;;5.60;;
9970;SDS011;5026;51.494;11.974;2024-01-30T00:17:19;8.73;;;5.80;;
9970;SDS011;5026;51.494;11.974;2024-01-30T00:19:47;8.93;;;5.77;;
9970;SDS011;5026;51.494;11.974;2024-01-30T00:22:14;8.83;;;4.83;;
9970;SDS011;5026;51.494;11.974;2024-01-30T00:24:41;11.03;;;5.67;;
9970;SDS011;5026;51.494;11.974;2024-01-30T00:27:09;8.37;;;5.53;;
9970;SDS011;5026;51.494;11.974;2024-01-30T00:29:36;8.73;;;5.93;;
9970;SDS011;5026;51.494;11.974;2024-01-30T00:32:03;9.33;;;5.33;;
9970;SDS011;5026;51.494;11.974;2024-01-30T00:34:31;9.50;;;5.43;;
9970;SDS011;5026;51.494;11.974;2024-01-30T00:36:58;7.40;;;5.40;;
9970;SDS011;5026;51.494;11.974;2024-01-30T00:39:25;9.67;;;5.87;;
9970;SDS011;5026;51.494;11.974;2024-01-30T00:41:52;12.87;;;5.67;;
9970;SDS011;5026;51.494;11.974;2024-01-30T00:44:20;10.20;;;5.47;;
9970;SDS011;5026;51.494;11.974;2024-01-30T00:46:47;11.27;;;5.33;;
9970;SDS011;5026;51.494;11.974;2024-01-30T00:49:14;9.57;;;5.47;;
9970;SDS011;5026;51.494;11.974;2024-01-30T00:51:41;7.57;;;4.80;;
9970;SDS011;5026;51.494;11.974;2024-01-30T00:54:08;8.80;;;5.43;;
9970;SDS011;5026;51.494;11.974;2024-01-30T00:56:35;7.73;;;4.80;;
9970;SDS011;5026;51.494;11.974;2024-01-30T00:59:01;6.60;;;5.23;;
9970;SDS011;5026;51.494;11.974;2024-01-30T01:01:30;8.83;;;5.17;;
9970;SDS011;5026;51.494;11.974;2024-01-30T01:03:57;7.53;;;5.23;;
9970;SDS011;5026;51.494;11.974;2024-01-30T01:06:24;7.40;;;5.13;;
9970;SDS011;5026;51.494;11.974;2024-01-30T01:08:51;6.63;;;4.73;;
9970;SDS011;5026;51.494;11.974;2024-01-30T01:11:18;7.03;;;5.20;;
9970;SDS011;5026;51.494;11.974;2024-01-30T01:13:45;6.77;;;5.27;;
9970;SDS011;5026;51.494;11.974;2024-01-30T01:16:12;10.77;;;5.63;;
9970;SDS011;5026;51.494;11.974;2024-01-30T01:18:40;6.90;;;5.20;;
9970;SDS011;5026;51.494;11.974;2024-01-30T01:21:07;8.70;;;5.13;;
9970;SDS011;5026;51.494;11.974;2024-01-30T01:23:34;6.53;;;5.07;;
9970;SDS011;5026;51.494;11.974;2024-01-30T01:26:01;6.83;;;4.97;;
9970;SDS011;5026;51.494;11.974;2024-01-30T01:28:28;10.30;;;5.50;;
9970;SDS011;5026;51.494;11.974;2024-01-30T01:30:55;8.57;;;5.53;;
9970;SDS011;5026;51.494;11.974;2024-01-30T01:33:30;6.20;;;4.00;;
9970;SDS011;5026;51.494;11.974;2024-01-30T01:35:59;8.07;;;5.40;;
9970;SDS011;5026;51.494;11.974;2024-01-30T01:38:27;8.83;;;5.13;;
9970;SDS011;5026;51.494;11.974;2024-01-30T01:40:54;9.60;;;5.20;;
9970;SDS011;5026;51.494;11.974;2024-01-30T01:43:21;7.93;;;5.13;;
9970;SDS011;5026;51.494;11.974;2024-01-30T01:45:48;6.93;;;4.40;;
9970;SDS011;5026;51.494;11.974;2024-01-30T01:48:15;7.77;;;4.70;;
9970;SDS011;5026;51.494;11.974;2024-01-30T01:50:42;7.53;;;4.80;;
9970;SDS011;5026;51.494;11.974;2024-01-30T01:53:11;8.00;;;4.27;;
9970;SDS011;5026;51.494;11.974;2024-01-30T01:55:38;7.17;;;4.70;;
9970;SDS011;5026;51.494;11.974;2024-01-30T01:58:05;7.40;;;5.00;;
9970;SDS011;5026;51.494;11.974;2024-01-30T02:00:35;8.13;;;4.20;;
9970;SDS011;5026;51.494;11.974;2024-01-30T02:03:05;8.60;;;4.63;;
9970;SDS011;5026;51.494;11.974;2024-01-30T02:05:32;5.50;;;4.33;;
9970;SDS011;5026;51.494;11.974;2024-01-30T02:08:00;5.50;;;4.30;;
9970;SDS011;5026;51.494;11.974;2024-01-30T02:10:29;6.50;;;4.50;;
9970;SDS011;5026;51.494;11.974;2024-01-30T02:12:56;6.33;;;4.70;;
9970;SDS011;5026;51.494;11.974;2024-01-30T02:15:23;6.83;;;4.43;;
9970;SDS011;5026;51.494;11.974;2024-01-30T02:17:50;7.20;;;4.53;;
9970;SDS011;5026;51.494;11.974;2024-01-30T02:20:17;8.67;;;5.30;;
9970;SDS011;5026;51.494;11.974;2024-01-30T02:22:45;8.50;;;5.17;;
9970;SDS011;5026;51.494;11.974;2024-01-30T02:25:13;6.20;;;4.57;;
9970;SDS011;5026;51.494;11.974;2024-01-30T02:27:40;8.67;;;4.73;;
9970;SDS011;5026;51.494;11.974;2024-01-30T02:30:07;6.93;;;4.60;;
9970;SDS011;5026;51.494;11.974;2024-01-30T02:32:34;7.53;;;4.43;;
9970;SDS011;5026;51.494;11.974;2024-01-30T02:35:01;9.27;;;5.20;;
9970;SDS011;5026;51.494;11.974;2024-01-30T02:37:28;8.10;;;4.73;;
9970;SDS011;5026;51.494;11.974;2024-01-30T02:39:57;7.90;;;4.47;;
9970;SDS011;5026;51.494;11.974;2024-01-30T02:42:24;6.87;;;5.07;;
9970;SDS011;5026;51.494;11.974;2024-01-30T02:44:51;7.77;;;4.97;;
9970;SDS011;5026;51.494;11.974;2024-01-30T02:47:18;6.23;;;4.87;;
9970;SDS011;5026;51.494;11.974;2024-01-30T02:49:45;9.20;;;4.93;;
9970;SDS011;5026;51.494;11.974;2024-01-30T02:52:11;8.13;;;4.93;;
9970;SDS011;5026;51.494;11.974;2024-01-30T02:54:38;6.47;;;4.60;;
9970;SDS011;5026;51.494;11.974;2024-01-30T02:57:07;6.80;;;4.40;;
9970;SDS011;5026;51.494;11.974;2024-01-30T02:59:34;9.77;;;5.00;;
9970;SDS011;5026;51.494;11.974;2024-01-30T03:02:01;7.33;;;4.90;;
9970;SDS011;5026;51.494;11.974;2024-01-30T03:04:28;8.50;;;5.00;;
9970;SDS011;5026;51.494;11.974;2024-01-30T03:06:55;7.73;;;5.00;;
9970;SDS011;5026;51.494;11.974;2024-01-30T03:09:22;5.70;;;4.57;;
9970;SDS011;5026;51.494;11.974;2024-01-30T03:11:49;7.33;;;4.53;;
9970;SDS011;5026;51.494;11.974;2024-01-30T03:14:17;6.43;;;4.43;;
9970;SDS011;5026;51.494;11.974;2024-01-30T03:16:44;9.03;;;5.07;;
9970;SDS011;5026;51.494;11.974;2024-01-30T03:19:11;7.90;;;4.97;;
9970;SDS011;5026;51.494;11.974;2024-01-30T03:21:38;9.70;;;4.60;;
9970;SDS011;5026;51.494;11.974;2024-01-30T03:24:05;4.80;;;3.87;;
9970;SDS011;5026;51.494;11.974;2024-01-30T03:26:32;5.57;;;4.30;;
9970;SDS011;5026;51.494;11.974;2024-01-30T03:28:59;9.53;;;4.60;;
9970;SDS011;5026;51.494;11.974;2024-01-30T03:31:28;8.27;;;5.27;;
9970;SDS011;5026;51.494;11.974;2024-01-30T03:33:54;7.87;;;4.87;;
9970;SDS011;5026;51.494;11.974;2024-01-30T03:36:21;7.77;;;4.43;;
9970;SDS011;5026;51.494;11.974;2024-01-30T03:38:48;10.17;;;4.80;;
9970;SDS011;5026;51.494;11.974;2024-01-30T03:41:15;6.93;;;4.57;;
9970;SDS011;5026;51.494;11.974;2024-01-30T03:43:42;6.57;;;4.40;;
9970;SDS011;5026;51.494;11.974;2024-01-30T03:46:11;8.23;;;4.47;;
9970;SDS011;5026;51.494;11.974;2024-01-30T03:48:40;9.90;;;5.13;;
9970;SDS011;5026;51.494;11.974;2024-01-30T03:51:07;8.40;;;4.93;;
9970;SDS011;5026;51.494;11.974;2024-01-30T03:53:34;9.30;;;5.23;;
9970;SDS011;5026;51.494;11.974;2024-01-30T03:56:00;8.73;;;5.27;;
9970;SDS011;5026;51.494;11.974;2024-01-30T03:58:28;9.03;;;5.13;;
9970;SDS011;5026;51.494;11.974;2024-01-30T04:00:54;9.73;;;5.50;;
9970;SDS011;5026;51.494;11.974;2024-01-30T04:03:21;8.97;;;4.77;;
9970;SDS011;5026;51.494;11.974;2024-01-30T04:05:49;8.47;;;5.37;;
9970;SDS011;5026;51.494;11.974;2024-01-30T04:08:17;9.33;;;5.60;;
9970;SDS011;5026;51.494;11.974;2024-01-30T04:10:44;8.77;;;5.70;;
9970;SDS011;5026;51.494;11.974;2024-01-30T04:13:12;8.53;;;5.13;;
9970;SDS011;5026;51.494;11.974;2024-01-30T04:15:39;9.47;;;5.07;;
9970;SDS011;5026;51.494;11.974;2024-01-30T04:18:06;10.13;;;5.00;;
9970;SDS011;5026;51.494;11.974;2024-01-30T04:20:33;7.67;;;4.67;;
9970;SDS011;5026;51.494;11.974;2024-01-30T04:23:01;7.93;;;5.03;;
9970;SDS011;5026;51.494;11.974;2024-01-30T04:25:28;11.10;;;6.37;;
9970;SDS011;5026;51.494;11.974;2024-01-30T04:27:55;7.90;;;5.13;;
9970;SDS011;5026;51.494;11.974;2024-01-30T04:30:22;7.50;;;5.00;;
9970;SDS011;5026;51.494;11.974;2024-01-30T04:32:49;8.10;;;4.33;;
9970;SDS011;5026;51.494;11.974;2024-01-30T04:35:15;10.63;;;5.10;;
9970;SDS011;5026;51.494;11.974;2024-01-30T04:37:42;8.27;;;5.37;;
9970;SDS011;5026;51.494;11.974;2024-01-30T04:40:11;10.40;;;5.97;;
9970;SDS011;5026;51.494;11.974;2024-01-30T04:42:38;8.87;;;4.97;;
9970;SDS011;5026;51.494;11.974;2024-01-30T04:45:05;7.10;;;5.07;;
9970;SDS011;5026;51.494;11.974;2024-01-30T04:47:33;8.47;;;5.30;;
9970;SDS011;5026;51.494;11.974;2024-01-30T04:50:00;7.63;;;4.93;;
9970;SDS011;5026;51.494;11.974;2024-01-30T04:52:27;9.47;;;5.23;;
9970;SDS011;5026;51.494;11.974;2024-01-30T04:54:54;7.47;;;5.40;;
9970;SDS011;5026;51.494;11.974;2024-01-30T04:57:22;10.27;;;5.37;;
9970;SDS011;5026;51.494;11.974;2024-01-30T04:59:49;6.57;;;4.57;;
9970;SDS011;5026;51.494;11.974;2024-01-30T05:02:16;7.17;;;4.87;;
9970;SDS011;5026;51.494;11.974;2024-01-30T05:04:43;7.07;;;4.90;;
9970;SDS011;5026;51.494;11.974;2024-01-30T05:07:10;9.67;;;4.67;;
9970;SDS011;5026;51.494;11.974;2024-01-30T05:09:37;9.13;;;5.23;;
9970;SDS011;5026;51.494;11.974;2024-01-30T05:12:04;10.07;;;5.10;;
9970;SDS011;5026;51.494;11.974;2024-01-30T05:14:32;6.53;;;4.87;;
9970;SDS011;5026;51.494;11.974;2024-01-30T05:17:00;7.70;;;4.80;;
9970;SDS011;5026;51.494;11.974;2024-01-30T05:19:28;7.17;;;4.70;;
9970;SDS011;5026;51.494;11.974;2024-01-30T05:21:55;8.33;;;4.97;;
9970;SDS011;5026;51.494;11.974;2024-01-30T05:24:21;8.60;;;4.87;;
9970;SDS011;5026;51.494;11.974;2024-01-30T05:26:48;6.10;;;4.37;;
9970;SDS011;5026;51.494;11.974;2024-01-30T05:29:16;6.90;;;4.63;;
9970;SDS011;5026;51.494;11.974;2024-01-30T05:31:44;6.23;;;4.47;;
9970;SDS011;5026;51.494;11.974;2024-01-30T05:34:11;5.83;;;4.50;;
9970;SDS011;5026;51.494;11.974;2024-01-30T05:36:38;6.93;;;4.70;;
9970;SDS011;5026;51.494;11.974;2024-01-30T05:39:05;7.97;;;5.17;;
9970;SDS011;5026;51.494;11.974;2024-01-30T05:41:32;8.63;;;5.30;;
9970;SDS011;5026;51.494;11.974;2024-01-30T05:43:59;10.30;;;4.70;;
9970;SDS011;5026;51.494;11.974;2024-01-30T05:46:26;12.33;;;5.97;;
9970;SDS011;5026;51.494;11.974;2024-01-30T05:48:54;10.80;;;6.03;;
9970;SDS011;5026;51.494;11.974;2024-01-30T05:51:21;9.50;;;5.50;;
9970;SDS011;5026;51.494;11.974;2024-01-30T05:53:48;7.40;;;5.60;;
9970;SDS011;5026;51.494;11.974;2024-01-30T05:56:16;6.53;;;4.37;;
9970;SDS011;5026;51.494;11.974;2024-01-30T05:58:42;9.23;;;4.57;;
9970;SDS011;5026;51.494;11.974;2024-01-30T06:01:09;7.73;;;4.90;;
9970;SDS011;5026;51.494;11.974;2024-01-30T06:03:36;5.83;;;4.60;;
9970;SDS011;5026;51.494;11.974;2024-01-30T06:06:05;5.43;;;4.33;;
9970;SDS011;5026;51.494;11.974;2024-01-30T06:08:32;6.37;;;4.63;;
9970;SDS011;5026;51.494;11.974;2024-01-30T06:11:00;9.93;;;5.13;;
9970;SDS011;5026;51.494;11.974;2024-01-30T06:13:27;8.30;;;4.83;;
9970;SDS011;5026;51.494;11.974;2024-01-30T06:15:56;7.60;;;4.70;;
9970;SDS011;5026;51.494;11.974;2024-01-30T06:18:23;8.00;;;5.03;;
9970;SDS011;5026;51.494;11.974;2024-01-30T06:20:52;6.33;;;4.60;;
9970;SDS011;5026;51.494;11.974;2024-01-30T06:23:20;12.00;;;5.67;;
9970;SDS011;5026;51.494;11.974;2024-01-30T06:25:47;8.43;;;5.00;;
9970;SDS011;5026;51.494;11.974;2024-01-30T06:28:14;7.63;;;4.63;;
9970;SDS011;5026;51.494;11.974;2024-01-30T06:30:41;7.30;;;4.10;;
9970;SDS011;5026;51.494;11.974;2024-01-30T06:33:10;7.53;;;4.73;;
9970;SDS011;5026;51.494;11.974;2024-01-30T06:35:38;7.37;;;4.33;;
9970;SDS011;5026;51.494;11.974;2024-01-30T06:38:05;6.63;;;4.50;;
9970;SDS011;5026;51.494;11.974;2024-01-30T06:40:33;6.13;;;4.10;;
9970;SDS011;5026;51.494;11.974;2024-01-30T06:43:01;10.03;;;4.50;;
9970;SDS011;5026;51.494;11.974;2024-01-30T06:45:29;6.50;;;4.10;;
9970;SDS011;5026;51.494;11.974;2024-01-30T06:47:56;8.23;;;3.93;;
9970;SDS011;5026;51.494;11.974;2024-01-30T06:50:23;5.50;;;4.20;;
9970;SDS011;5026;51.494;11.974;2024-01-30T06:52:49;7.10;;;4.27;;
9970;SDS011;5026;51.494;11.974;2024-01-30T06:55:17;7.57;;;4.20;;
9970;SDS011;5026;51.494;11.974;2024-01-30T06:57:46;7.80;;;4.57;;
9970;SDS011;5026;51.494;11.974;2024-01-30T07:00:13;6.40;;;4.60;;
9970;SDS011;5026;51.494;11.974;2024-01-30T07:02:41;7.97;;;4.93;;
9970;SDS011;5026;51.494;11.974;2024-01-30T07:05:08;9.97;;;4.57;;
9970;SDS011;5026;51.494;11.974;2024-01-30T07:07:35;11.20;;;4.37;;
9970;SDS011;5026;51.494;11.974;2024-01-30T07:10:03;7.57;;;5.17;;
9970;SDS011;5026;51.494;11.974;2024-01-30T07:12:30;7.10;;;4.63;;
9970;SDS011;5026;51.494;11.974;2024-01-30T07:14:59;8.30;;;4.40;;
9970;SDS011;5026;51.494;11.974;2024-01-30T07:17:27;7.60;;;4.40;;
9970;SDS011;5026;51.494;11.974;2024-01-30T07:19:54;11.90;;;4.93;;
9970;SDS011;5026;51.494;11.974;2024-01-30T07:22:21;10.67;;;5.37;;
9970;SDS011;5026;51.494;11.974;2024-01-30T07:24:48;9.50;;;5.17;;
9970;SDS011;5026;51.494;11.974;2024-01-30T07:27:17;10.13;;;5.77;;
9970;SDS011;5026;51.494;11.974;2024-01-30T07:29:44;8.90;;;5.77;;
9970;SDS011;5026;51.494;11.974;2024-01-30T07:32:12;10.50;;;5.43;;
9970;SDS011;5026;51.494;11.974;2024-01-30T07:34:39;13.00;;;5.70;;
9970;SDS011;5026;51.494;11.974;2024-01-30T07:37:06;10.83;;;5.73;;
9970;SDS011;5026;51.494;11.974;2024-01-30T07:39:33;7.83;;;6.27;;
9970;SDS011;5026;51.494;11.974;2024-01-30T07:42:00;10.40;;;5.63;;
9970;SDS011;5026;51.494;11.974;2024-01-30T07:44:27;12.43;;;5.27;;
9970;SDS011;5026;51.494;11.974;2024-01-30T07:46:54;9.60;;;6.17;;
9970;SDS011;5026;51.494;11.974;2024-01-30T07:49:24;13.27;;;5.60;;
9970;SDS011;5026;51.494;11.974;2024-01-30T07:51:50;9.57;;;5.20;;
9970;SDS011;5026;51.494;11.974;2024-01-30T07:54:17;7.97;;;4.80;;
9970;SDS011;5026;51.494;11.974;2024-01-30T07:56:44;10.80;;;5.17;;
9970;SDS011;5026;51.494;11.974;2024-01-30T07:59:11;11.07;;;5.73;;
9970;SDS011;5026;51.494;11.974;2024-01-30T08:01:38;13.63;;;5.90;;
9970;SDS011;5026;51.494;11.974;2024-01-30T08:04:05;13.00;;;6.17;;
9970;SDS011;5026;51.494;11.974;2024-01-30T08:06:33;11.90;;;5.63;;
9970;SDS011;5026;51.494;11.974;2024-01-30T08:09:00;8.47;;;4.53;;
9970;SDS011;5026;51.494;11.974;2024-01-30T08:11:27;15.80;;;5.43;;
9970;SDS011;5026;51.494;11.974;2024-01-30T08:13:54;11.93;;;6.80;;
9970;SDS011;5026;51.494;11.974;2024-01-30T08:16:21;10.30;;;5.53;;
9970;SDS011;5026;51.494;11.974;2024-01-30T08:18:48;10.27;;;5.90;;
9970;SDS011;5026;51.494;11.974;2024-01-30T08:21:15;9.17;;;5.30;;
9970;SDS011;5026;51.494;11.974;2024-01-30T08:23:44;8.30;;;4.90;;
9970;SDS011;5026;51.494;11.974;2024-01-30T08:26:11;6.70;;;4.60;;
9970;SDS011;5026;51.494;11.974;2024-01-30T08:28:38;9.50;;;5.03;;
9970;SDS011;5026;51.494;11.974;2024-01-30T08:31:04;9.30;;;5.10;;
9970;SDS011;5026;51.494;11.974;2024-01-30T08:33:31;8.90;;;4.77;;
9970;SDS011;5026;51.494;11.974;2024-01-30T08:35:58;7.40;;;4.53;;
9970;SDS011;5026;51.494;11.974;2024-01-30T08:38:26;7.50;;;4.73;;
9970;SDS011;5026;51.494;11.974;2024-01-30T08:40:54;7.40;;;4.20;;
9970;SDS011;5026;51.494;11.974;2024-01-30T08:43:22;9.63;;;4.70;;
9970;SDS011;5026;51.494;11.974;2024-01-30T08:45:49;9.50;;;4.67;;
9970;SDS011;5026;51.494;11.974;2024-01-30T08:48:16;5.87;;;4.23;;
9970;SDS011;5026;51.494;11.974;2024-01-30T08:50:43;9.97;;;5.00;;
9970;SDS011;5026;51.494;11.974;2024-01-30T08:53:10;7.33;;;4.00;;
9970;SDS011;5026;51.494;11.974;2024-01-30T08:55:37;7.33;;;4.50;;
9970;SDS011;5026;51.494;11.974;2024-01-30T08:58:06;8.77;;;4.50;;
9970;SDS011;5026;51.494;11.974;2024-01-30T09:00:33;8.83;;;5.37;;
9970;SDS011;5026;51.494;11.974;2024-01-30T09:03:00;7.33;;;4.27;;
9970;SDS011;5026;51.494;11.974;2024-01-30T09:05:27;6.17;;;4.40;;
9970;SDS011;5026;51.494;11.974;2024-01-30T09:07:54;6.90;;;4.47;;
9970;SDS011;5026;51.494;11.974;2024-01-30T09:10:21;10.43;;;4.40;;
9970;SDS011;5026;51.494;11.974;2024-01-30T09:12:48;6.83;;;4.37;;
9970;SDS011;5026;51.494;11.974;2024-01-30T09:15:17;7.07;;;4.67;;
9970;SDS011;5026;51.494;11.974;2024-01-30T09:17:45;7.57;;;4.33;;
9970;SDS011;5026;51.494;11.974;2024-01-30T09:20:12;9.97;;;4.47;;
9970;SDS011;5026;51.494;11.974;2024-01-30T09:22:39;5.17;;;4.00;;
9970;SDS011;5026;51.494;11.974;2024-01-30T09:25:06;9.40;;;4.30;;
9970;SDS011;5026;51.494;11.974;2024-01-30T09:27:33;7.40;;;4.50;;
9970;SDS011;5026;51.494;11.974;2024-01-30T09:30:00;5.93;;;4.20;;
9970;SDS011;5026;51.494;11.974;2024-01-30T09:32:29;5.30;;;3.60;;
9970;SDS011;5026;51.494;11.974;2024-01-30T09:34:56;7.60;;;4.10;;
9970;SDS011;5026;51.494;11.974;2024-01-30T09:37:23;4.57;;;3.57;;
9970;SDS011;5026;51.494;11.974;2024-01-30T09:39:50;6.00;;;4.00;;
9970;SDS011;5026;51.494;11.974;2024-01-30T09:42:18;8.47;;;4.20;;
9970;SDS011;5026;51.494;11.974;2024-01-30T09:44:52;4.77;;;4.13;;
9970;SDS011;5026;51.494;11.974;2024-01-30T09:47:20;5.40;;;4.10;;
9970;SDS011;5026;51.494;11.974;2024-01-30T09:49:49;9.10;;;3.83;;
9970;SDS011;5026;51.494;11.974;2024-01-30T09:52:16;7.13;;;3.90;;
9970;SDS011;5026;51.494;11.974;2024-01-30T09:54:44;10.40;;;3.97;;
9970;SDS011;5026;51.494;11.974;2024-01-30T09:57:11;8.83;;;4.27;;
9970;SDS011;5026;51.494;11.974;2024-01-30T09:59:38;7.07;;;4.10;;
9970;SDS011;5026;51.494;11.974;2024-01-30T10:02:05;7.67;;;4.60;;
9970;SDS011;5026;51.494;11.974;2024-01-30T10:04:33;5.93;;;4.07;;
9970;SDS011;5026;51.494;11.974;2024-01-30T10:07:02;10.30;;;4.00;;
9970;SDS011;5026;51.494;11.974;2024-01-30T10:09:31;7.43;;;4.50;;
9970;SDS011;5026;51.494;11.974;2024-01-30T10:12:01;9.00;;;4.67;;
9970;SDS011;5026;51.494;11.974;2024-01-30T10:14:29;7.72;;;4.10;;
9970;SDS011;5026;51.494;11.974;2024-01-30T10:16:57;8.60;;;4.63;;
9970;SDS011;5026;51.494;11.974;2024-01-30T10:19:24;5.78;;;4.35;;
9970;SDS011;5026;51.494;11.974;2024-01-30T10:21:51;5.40;;;3.97;;
9970;SDS011;5026;51.494;11.974;2024-01-30T10:24:23;5.95;;;4.00;;
9970;SDS011;5026;51.494;11.974;2024-01-30T10:26:50;6.82;;;4.13;;
9970;SDS011;5026;51.494;11.974;2024-01-30T10:29:17;7.00;;;3.90;;
9970;SDS011;5026;51.494;11.974;2024-01-30T10:31:44;8.20;;;4.22;;
9970;SDS011;5026;51.494;11.974;2024-01-30T10:34:12;7.10;;;4.20;;
9970;SDS011;5026;51.494;11.974;2024-01-30T10:36:39;6.75;;;4.20;;
9970;SDS011;5026;51.494;11.974;2024-01-30T10:39:07;11.00;;;4.45;;
9970;SDS011;5026;51.494;11.974;2024-01-30T10:41:38;8.82;;;4.47;;
9970;SDS011;5026;51.494;11.974;2024-01-30T10:44:09;4.88;;;3.90;;
9970;SDS011;5026;51.494;11.974;2024-01-30T10:46:37;5.65;;;4.10;;
9970;SDS011;5026;51.494;11.974;2024-01-30T10:49:05;6.90;;;4.13;;
9970;SDS011;5026;51.494;11.974;2024-01-30T10:51:32;5.13;;;4.20;;
9970;SDS011;5026;51.494;11.974;2024-01-30T10:54:00;7.82;;;4.07;;
9970;SDS011;5026;51.494;11.974;2024-01-30T10:56:28;7.38;;;4.55;;
9970;SDS011;5026;51.494;11.974;2024-01-30T10:58:59;7.25;;;4.50;;
9970;SDS011;5026;51.494;11.974;2024-01-30T11:01:26;5.18;;;3.63;;
9970;SDS011;5026;51.494;11.974;2024-01-30T11:03:55;7.40;;;4.30;;
9970;SDS011;5026;51.494;11.974;2024-01-30T11:06:22;6.03;;;4.30;;
9970;SDS011;5026;51.494;11.974;2024-01-30T11:08:59;11.63;;;4.60;;
9970;SDS011;5026;51.494;11.974;2024-01-30T11:11:28;5.28;;;4.13;;
9970;SDS011;5026;51.494;11.974;2024-01-30T11:13:55;6.13;;;4.70;;
9970;SDS011;5026;51.494;11.974;2024-01-30T11:16:30;7.03;;;4.15;;
9970;SDS011;5026;51.494;11.974;2024-01-30T11:19:00;6.45;;;4.60;;
9970;SDS011;5026;51.494;11.974;2024-01-30T11:21:27;8.38;;;4.57;;
9970;SDS011;5026;51.494;11.974;2024-01-30T11:23:54;6.30;;;4.25;;
9970;SDS011;5026;51.494;11.974;2024-01-30T11:26:23;5.85;;;4.32;;
9970;SDS011;5026;51.494;11.974;2024-01-30T11:28:54;9.80;;;5.13;;
9970;SDS011;5026;51.494;11.974;2024-01-30T11:31:23;6.40;;;4.35;;
9970;SDS011;5026;51.494;11.974;2024-01-30T11:33:52;7.07;;;4.15;;
9970;SDS011;5026;51.494;11.974;2024-01-30T11:36:20;8.15;;;4.55;;
9970;SDS011;5026;51.494;11.974;2024-01-30T11:38:51;8.57;;;4.68;;
9970;SDS011;5026;51.494;11.974;2024-01-30T11:41:18;8.50;;;4.95;;
9970;SDS011;5026;51.494;11.974;2024-01-30T11:43:51;7.63;;;4.18;;
9970;SDS011;5026;51.494;11.974;2024-01-30T11:46:18;5.22;;;4.18;;
9970;SDS011;5026;51.494;11.974;2024-01-30T11:48:46;6.93;;;4.45;;
9970;SDS011;5026;51.494;11.974;2024-01-30T11:51:13;5.88;;;4.10;;
9970;SDS011;5026;51.494;11.974;2024-01-30T11:53:41;7.45;;;4.40;;
9970;SDS011;5026;51.494;11.974;2024-01-30T11:56:08;5.43;;;4.40;;
9970;SDS011;5026;51.494;11.974;2024-01-30T11:58:35;7.43;;;4.47;;
9970;SDS011;5026;51.494;11.974;2024-01-30T12:01:01;7.55;;;4.75;;
9970;SDS011;5026;51.494;11.974;2024-01-30T12:03:28;6.53;;;4.88;;
9970;SDS011;5026;51.494;11.974;2024-01-30T12:05:58;7.93;;;5.05;;
9970;SDS011;5026;51.494;11.974;2024-01-30T12:08:25;7.97;;;4.82;;
9970;SDS011;5026;51.494;11.974;2024-01-30T12:10:55;7.13;;;4.65;;
9970;SDS011;5026;51.494;11.974;2024-01-30T12:13:23;7.93;;;4.28;;
9970;SDS011;5026;51.494;11.974;2024-01-30T12:15:51;8.30;;;5.20;;
9970;SDS011;5026;51.494;11.974;2024-01-30T12:18:19;6.32;;;4.32;;
9970;SDS011;5026;51.494;11.974;2024-01-30T12:20:57;6.43;;;4.63;;
9970;SDS011;5026;51.494;11.974;2024-01-30T12:23:25;5.43;;;4.32;;
9970;SDS011;5026;51.494;11.974;2024-01-30T12:25:53;9.50;;;4.93;;
9970;SDS011;5026;51.494;11.974;2024-01-30T12:28:20;6.72;;;4.88;;
9970;SDS011;5026;51.494;11.974;2024-01-30T12:30:47;6.53;;;4.50;;
9970;SDS011;5026;51.494;11.974;2024-01-30T12:33:16;6.97;;;5.20;;
9970;SDS011;5026;51.494;11.974;2024-01-30T12:35:45;9.13;;;4.55;;
9970;SDS011;5026;51.494;11.974;2024-01-30T12:38:14;8.57;;;4.85;;
9970;SDS011;5026;51.494;11.974;2024-01-30T12:40:41;8.88;;;5.03;;
9970;SDS011;5026;51.494;11.974;2024-01-30T12:43:08;7.78;;;4.60;;
9970;SDS011;5026;51.494;11.974;2024-01-30T12:45:35;5.70;;;4.65;;
9970;SDS011;5026;51.494;11.974;2024-01-30T12:48:03;8.15;;;4.68;;
9970;SDS011;5026;51.494;11.974;2024-01-30T12:50:30;9.48;;;5.00;;
9970;SDS011;5026;51.494;11.974;2024-01-30T12:52:57;8.25;;;5.00;;
9970;SDS011;5026;51.494;11.974;2024-01-30T12:55:25;8.43;;;4.47;;
9970;SDS011;5026;51.494;11.974;2024-01-30T12:57:53;9.90;;;5.20;;
9970;SDS011;5026;51.494;11.974;2024-01-30T13:00:20;7.10;;;4.90;;
9970;SDS011;5026;51.494;11.974;2024-01-30T13:02:47;6.25;;;4.78;;
9970;SDS011;5026;51.494;11.974;2024-01-30T13:05:15;5.88;;;4.45;;
9970;SDS011;5026;51.494;11.974;2024-01-30T13:07:42;7.88;;;4.63;;
9970;SDS011;5026;51.494;11.974;2024-01-30T13:10:09;7.40;;;4.68;;
9970;SDS011;5026;51.494;11.974;2024-01-30T13:12:38;7.90;;;4.95;;
9970;SDS011;5026;51.494;11.974;2024-01-30T13:15:05;8.82;;;5.05;;
9970;SDS011;5026;51.494;11.974;2024-01-30T13:17:32;12.45;;;4.90;;
9970;SDS011;5026;51.494;11.974;2024-01-30T13:19:59;8.13;;;4.75;;
9970;SDS011;5026;51.494;11.974;2024-01-30T13:22:26;10.32;;;4.80;;
9970;SDS011;5026;51.494;11.974;2024-01-30T13:24:53;8.15;;;5.00;;
9970;SDS011;5026;51.494;11.974;2024-01-30T13:27:20;7.95;;;4.85;;
9970;SDS011;5026;51.494;11.974;2024-01-30T13:29:49;9.48;;;5.13;;
9970;SDS011;5026;51.494;11.974;2024-01-30T13:32:16;12.43;;;5.75;;
9970;SDS011;5026;51.494;11.974;2024-01-30T13:34:43;9.25;;;5.60;;
9970;SDS011;5026;51.494;11.974;2024-01-30T13:37:09;8.40;;;5.18;;
9970;SDS011;5026;51.494;11.974;2024-01-30T13:39:36;10.63;;;4.95;;
9970;SDS011;5026;51.494;11.974;2024-01-30T13:42:04;6.93;;;5.03;;
9970;SDS011;5026;51.494;11.974;2024-01-30T13:44:31;7.97;;;4.95;;
9970;SDS011;5026;51.494;11.974;2024-01-30T13:46:59;8.00;;;4.57;;
9970;SDS011;5026;51.494;11.974;2024-01-30T13:49:27;10.55;;;5.18;;
9970;SDS011;5026;51.494;11.974;2024-01-30T13:51:54;7.03;;;4.82;;
9970;SDS011;5026;51.494;11.974;2024-01-30T13:54:21;10.10;;;5.28;;
9970;SDS011;5026;51.494;11.974;2024-01-30T13:56:48;7.88;;;4.93;;
9970;SDS011;5026;51.494;11.974;2024-01-30T13:59:15;8.45;;;4.82;;
9970;SDS011;5026;51.494;11.974;2024-01-30T14:01:47;9.98;;;4.90;;
9970;SDS011;5026;51.494;11.974;2024-01-30T14:04:16;7.40;;;5.28;;
9970;SDS011;5026;51.494;11.974;2024-01-30T14:06:43;10.68;;;4.90;;
9970;SDS011;5026;51.494;11.974;2024-01-30T14:09:10;8.02;;;4.80;;
9970;SDS011;5026;51.494;11.974;2024-01-30T14:11:39;8.55;;;5.38;;
9970;SDS011;5026;51.494;11.974;2024-01-30T14:14:07;10.98;;;5.28;;
9970;SDS011;5026;51.494;11.974;2024-01-30T14:16:35;8.63;;;4.97;;
9970;SDS011;5026;51.494;11.974;2024-01-30T14:19:02;8.30;;;4.57;;
9970;SDS011;5026;51.494;11.974;2024-01-30T14:21:30;7.75;;;4.88;;
9970;SDS011;5026;51.494;11.974;2024-01-30T14:23:57;7.68;;;5.03;;
9970;SDS011;5026;51.494;11.974;2024-01-30T14:26:24;10.50;;;5.45;;
9970;SDS011;5026;51.494;11.974;2024-01-30T14:28:51;9.57;;;5.22;;
9970;SDS011;5026;51.494;11.974;2024-01-30T14:31:19;7.53;;;5.45;;
9970;SDS011;5026;51.494;11.974;2024-01-30T14:33:46;7.75;;;5.05;;
9970;SDS011;5026;51.494;11.974;2024-01-30T14:36:13;14.63;;;5.85;;
9970;SDS011;5026;51.494;11.974;2024-01-30T14:38:42;9.77;;;5.15;;
9970;SDS011;5026;51.494;11.974;2024-01-30T14:41:09;8.02;;;4.82;;
9970;SDS011;5026;51.494;11.974;2024-01-30T14:43:36;8.05;;;5.78;;
9970;SDS011;5026;51.494;11.974;2024-01-30T14:46:03;7.22;;;5.50;;
9970;SDS011;5026;51.494;11.974;2024-01-30T14:48:32;10.00;;;5.03;;
9970;SDS011;5026;51.494;11.974;2024-01-30T14:50:59;8.65;;;5.18;;
9970;SDS011;5026;51.494;11.974;2024-01-30T14:53:26;8.15;;;5.30;;
9970;SDS011;5026;51.494;11.974;2024-01-30T14:55:55;9.93;;;5.65;;
9970;SDS011;5026;51.494;11.974;2024-01-30T14:58:22;7.43;;;5.43;;
9970;SDS011;5026;51.494;11.974;2024-01-30T15:00:49;8.75;;;6.53;;